Miami, FL

4:30 AM EDT on August 27, 2016 (GMT -0400)
Little Havana-West Flagler Street in Miami Florida | | Change Station

Elev 13 ft 25.77 °N, 80.25 °W | Updated 2 seconds ago

Mostly Cloudy
Mostly Cloudy
81.0 °F
Feels Like 87 °F
N
1.0
Wind Variable Wind from North

Today
High -- | Low -- °F
--% Chance of Precip.
Yesterday
High -- | Low -- °F
Precip. -- in
Pressure 29.89 in
Visibility 10.0 miles
Clouds Few 2500 ft
Scattered Clouds 14000 ft
Mostly Cloudy 25000 ft
Heat Index 87 °F
Dew Point 75 °F
Humidity 83%
Rainfall 0.00 in
Snow Depth Not available.
6:59 AM 7:45 PM
Waning Crescent, 26% visible
METAR KMIA 270753Z 04005KT 10SM FEW025 SCT140 BKN250 28/25 A2989 RMK AO2 SLP122 OCNL LTGIC DSNT SE CB DSNT SE 98507 T02780250
Pressure 29.89 in
Visibility 10.0 miles
Clouds Few 2500 ft
Scattered Clouds 14000 ft
Mostly Cloudy 25000 ft
Heat Index 87 °F
Dew Point 75 °F
Humidity 83%
Rainfall 0.00 in
Snow Depth Not available.
6:59 AM 7:45 PM
Waning Crescent, 26% visible
METAR KMIA 270753Z 04005KT 10SM FEW025 SCT140 BKN250 28/25 A2989 RMK AO2 SLP122 OCNL LTGIC DSNT SE CB DSNT SE 98507 T02780250

10-Day Weather Forecast

Almanac

Astronomy

Aug. 27, 2016 Rise Set
Actual Time
Civil Twilight
Nautical Twilight
Astronomical Twilight
Moon
Length of Visible Light
Length of Day
Tomorrow will be .
, % of the Moon is Illuminated

Today's Extremes

State Highs State Lows

Community

WunderPhotos

Upload Photos

1,935,303 photos uploaded!

WunderBlog® & News

Nearby

Air Quality

  Air Quality AQ Index Pollutant
Not available.

Snow Depth

Station Depth Elevation

Earthquake Activity

City Distance Mag. Time & Date
Minimum magnitude displayed is 2.5.

Coastal Water Temperatures

Place Temperature

Stations

Nearby Weather Stations

Station Location Temp. Windchill Dew Point Humidity Wind Precip. Elev Updated Type
                   

Watches & Warnings

There are currently no watches in effect.